sensor_id;sensor_type;location;lat;lon;timestamp;P1;durP1;ratioP1;P2;durP2;ratioP2
75048;SDS011;63803;53.120;8.764;2023-03-14T00:00:22;4.47;;;1.45;;
75048;SDS011;63803;53.120;8.764;2023-03-14T00:02:51;6.38;;;1.70;;
75048;SDS011;63803;53.120;8.764;2023-03-14T00:05:17;2.65;;;1.38;;
75048;SDS011;63803;53.120;8.764;2023-03-14T00:07:43;3.90;;;1.30;;
75048;SDS011;63803;53.120;8.764;2023-03-14T00:10:11;7.65;;;1.40;;
75048;SDS011;63803;53.120;8.764;2023-03-14T00:12:39;5.10;;;1.50;;
75048;SDS011;63803;53.120;8.764;2023-03-14T00:15:05;4.22;;;1.33;;
75048;SDS011;63803;53.120;8.764;2023-03-14T00:17:32;4.90;;;1.85;;
75048;SDS011;63803;53.120;8.764;2023-03-14T00:19:58;4.93;;;1.55;;
75048;SDS011;63803;53.120;8.764;2023-03-14T00:22:39;3.78;;;1.40;;
75048;SDS011;63803;53.120;8.764;2023-03-14T00:25:06;3.10;;;1.17;;
75048;SDS011;63803;53.120;8.764;2023-03-14T00:27:33;5.65;;;1.63;;
75048;SDS011;63803;53.120;8.764;2023-03-14T00:29:58;2.30;;;1.20;;
75048;SDS011;63803;53.120;8.764;2023-03-14T00:32:24;3.95;;;1.38;;
75048;SDS011;63803;53.120;8.764;2023-03-14T00:34:50;3.55;;;1.30;;
75048;SDS011;63803;53.120;8.764;2023-03-14T00:37:15;2.45;;;1.23;;
75048;SDS011;63803;53.120;8.764;2023-03-14T00:39:41;6.72;;;1.50;;
75048;SDS011;63803;53.120;8.764;2023-03-14T00:42:06;5.10;;;1.73;;
75048;SDS011;63803;53.120;8.764;2023-03-14T00:44:32;5.50;;;1.33;;
75048;SDS011;63803;53.120;8.764;2023-03-14T00:46:58;4.40;;;1.25;;
75048;SDS011;63803;53.120;8.764;2023-03-14T00:49:23;5.97;;;1.48;;
75048;SDS011;63803;53.120;8.764;2023-03-14T00:51:49;4.55;;;1.17;;
75048;SDS011;63803;53.120;8.764;2023-03-14T00:54:14;2.70;;;1.17;;
75048;SDS011;63803;53.120;8.764;2023-03-14T00:56:40;6.95;;;1.30;;
75048;SDS011;63803;53.120;8.764;2023-03-14T00:59:05;5.68;;;1.50;;
75048;SDS011;63803;53.120;8.764;2023-03-14T01:01:31;4.63;;;1.20;;
75048;SDS011;63803;53.120;8.764;2023-03-14T01:03:56;6.22;;;1.33;;
75048;SDS011;63803;53.120;8.764;2023-03-14T01:06:23;5.80;;;1.30;;
75048;SDS011;63803;53.120;8.764;2023-03-14T01:08:51;7.22;;;1.58;;
75048;SDS011;63803;53.120;8.764;2023-03-14T01:11:20;6.63;;;1.33;;
75048;SDS011;63803;53.120;8.764;2023-03-14T01:13:51;2.65;;;1.10;;
75048;SDS011;63803;53.120;8.764;2023-03-14T01:16:16;3.70;;;1.35;;
75048;SDS011;63803;53.120;8.764;2023-03-14T01:18:44;2.70;;;1.33;;
75048;SDS011;63803;53.120;8.764;2023-03-14T01:23:44;5.78;;;1.45;;
75048;SDS011;63803;53.120;8.764;2023-03-14T01:26:11;2.50;;;1.10;;
75048;SDS011;63803;53.120;8.764;2023-03-14T01:28:39;2.40;;;1.13;;
75048;SDS011;63803;53.120;8.764;2023-03-14T01:31:05;4.20;;;1.30;;
75048;SDS011;63803;53.120;8.764;2023-03-14T01:33:32;4.97;;;1.50;;
75048;SDS011;63803;53.120;8.764;2023-03-14T01:35:58;3.22;;;1.30;;
75048;SDS011;63803;53.120;8.764;2023-03-14T01:38:24;7.07;;;1.23;;
75048;SDS011;63803;53.120;8.764;2023-03-14T01:40:50;7.63;;;1.02;;
75048;SDS011;63803;53.120;8.764;2023-03-14T01:43:16;4.90;;;1.10;;
75048;SDS011;63803;53.120;8.764;2023-03-14T01:48:42;2.35;;;1.35;;
75048;SDS011;63803;53.120;8.764;2023-03-14T01:54:12;5.32;;;1.00;;
75048;SDS011;63803;53.120;8.764;2023-03-14T01:56:50;4.50;;;1.20;;
75048;SDS011;63803;53.120;8.764;2023-03-14T01:59:19;4.55;;;1.25;;
75048;SDS011;63803;53.120;8.764;2023-03-14T02:01:46;2.55;;;1.35;;
75048;SDS011;63803;53.120;8.764;2023-03-14T02:04:13;2.35;;;1.20;;
75048;SDS011;63803;53.120;8.764;2023-03-14T02:06:53;3.08;;;1.20;;
75048;SDS011;63803;53.120;8.764;2023-03-14T02:09:25;8.05;;;1.38;;
75048;SDS011;63803;53.120;8.764;2023-03-14T02:11:51;2.42;;;1.23;;
75048;SDS011;63803;53.120;8.764;2023-03-14T02:14:22;1.83;;;1.00;;
75048;SDS011;63803;53.120;8.764;2023-03-14T02:16:54;3.35;;;1.10;;
75048;SDS011;63803;53.120;8.764;2023-03-14T02:19:22;2.47;;;1.10;;
75048;SDS011;63803;53.120;8.764;2023-03-14T02:22:02;3.15;;;1.20;;
75048;SDS011;63803;53.120;8.764;2023-03-14T02:24:43;3.65;;;1.20;;
75048;SDS011;63803;53.120;8.764;2023-03-14T02:27:16;2.83;;;1.15;;
75048;SDS011;63803;53.120;8.764;2023-03-14T02:29:54;6.55;;;1.10;;
75048;SDS011;63803;53.120;8.764;2023-03-14T02:32:24;1.70;;;0.98;;
75048;SDS011;63803;53.120;8.764;2023-03-14T02:34:52;1.95;;;1.00;;
75048;SDS011;63803;53.120;8.764;2023-03-14T02:37:21;4.28;;;1.30;;
75048;SDS011;63803;53.120;8.764;2023-03-14T02:39:48;2.67;;;1.25;;
75048;SDS011;63803;53.120;8.764;2023-03-14T02:42:14;2.78;;;1.00;;
75048;SDS011;63803;53.120;8.764;2023-03-14T02:47:33;3.00;;;1.13;;
75048;SDS011;63803;53.120;8.764;2023-03-14T02:50:05;3.13;;;1.00;;
75048;SDS011;63803;53.120;8.764;2023-03-14T02:52:34;4.10;;;1.48;;
75048;SDS011;63803;53.120;8.764;2023-03-14T02:54:59;4.03;;;1.23;;
75048;SDS011;63803;53.120;8.764;2023-03-14T02:57:25;4.07;;;1.05;;
75048;SDS011;63803;53.120;8.764;2023-03-14T02:59:50;4.03;;;1.20;;
75048;SDS011;63803;53.120;8.764;2023-03-14T03:02:16;4.10;;;1.50;;
75048;SDS011;63803;53.120;8.764;2023-03-14T03:04:42;4.53;;;1.02;;
75048;SDS011;63803;53.120;8.764;2023-03-14T03:07:07;4.60;;;1.35;;
75048;SDS011;63803;53.120;8.764;2023-03-14T03:09:33;4.57;;;1.10;;
75048;SDS011;63803;53.120;8.764;2023-03-14T03:11:59;2.78;;;0.90;;
75048;SDS011;63803;53.120;8.764;2023-03-14T03:14:24;4.35;;;1.08;;
75048;SDS011;63803;53.120;8.764;2023-03-14T03:16:50;6.88;;;1.67;;
75048;SDS011;63803;53.120;8.764;2023-03-14T03:19:15;4.30;;;1.35;;
75048;SDS011;63803;53.120;8.764;2023-03-14T03:21:42;2.83;;;1.10;;
75048;SDS011;63803;53.120;8.764;2023-03-14T03:24:08;5.25;;;1.58;;
75048;SDS011;63803;53.120;8.764;2023-03-14T03:26:34;3.65;;;1.10;;
75048;SDS011;63803;53.120;8.764;2023-03-14T03:29:01;5.03;;;1.25;;
75048;SDS011;63803;53.120;8.764;2023-03-14T03:31:27;2.58;;;1.17;;
75048;SDS011;63803;53.120;8.764;2023-03-14T03:33:53;10.13;;;1.20;;
75048;SDS011;63803;53.120;8.764;2023-03-14T03:36:22;3.80;;;1.20;;
75048;SDS011;63803;53.120;8.764;2023-03-14T03:38:49;3.97;;;1.08;;
75048;SDS011;63803;53.120;8.764;2023-03-14T03:41:15;7.07;;;1.60;;
75048;SDS011;63803;53.120;8.764;2023-03-14T03:43:40;7.15;;;1.40;;
75048;SDS011;63803;53.120;8.764;2023-03-14T03:46:06;3.30;;;1.20;;
75048;SDS011;63803;53.120;8.764;2023-03-14T03:48:32;3.92;;;1.00;;
75048;SDS011;63803;53.120;8.764;2023-03-14T03:50:58;3.67;;;1.25;;
75048;SDS011;63803;53.120;8.764;2023-03-14T03:53:23;2.10;;;1.00;;
75048;SDS011;63803;53.120;8.764;2023-03-14T03:55:49;3.17;;;1.00;;
75048;SDS011;63803;53.120;8.764;2023-03-14T03:58:15;2.13;;;1.15;;
75048;SDS011;63803;53.120;8.764;2023-03-14T04:00:40;3.13;;;1.20;;
75048;SDS011;63803;53.120;8.764;2023-03-14T04:03:06;4.22;;;1.10;;
75048;SDS011;63803;53.120;8.764;2023-03-14T04:05:31;4.00;;;1.45;;
75048;SDS011;63803;53.120;8.764;2023-03-14T04:07:57;6.93;;;1.30;;
75048;SDS011;63803;53.120;8.764;2023-03-14T04:10:22;7.82;;;1.50;;
75048;SDS011;63803;53.120;8.764;2023-03-14T04:12:48;1.67;;;1.00;;
75048;SDS011;63803;53.120;8.764;2023-03-14T04:15:13;18.35;;;1.00;;
75048;SDS011;63803;53.120;8.764;2023-03-14T04:17:39;5.47;;;1.10;;
75048;SDS011;63803;53.120;8.764;2023-03-14T04:20:04;1.80;;;1.00;;
75048;SDS011;63803;53.120;8.764;2023-03-14T04:22:35;3.15;;;1.40;;
75048;SDS011;63803;53.120;8.764;2023-03-14T04:25:01;3.58;;;1.10;;
75048;SDS011;63803;53.120;8.764;2023-03-14T04:27:28;6.13;;;1.13;;
75048;SDS011;63803;53.120;8.764;2023-03-14T04:29:54;6.20;;;1.42;;
75048;SDS011;63803;53.120;8.764;2023-03-14T04:32:19;1.85;;;0.90;;
75048;SDS011;63803;53.120;8.764;2023-03-14T04:34:45;1.77;;;0.93;;
75048;SDS011;63803;53.120;8.764;2023-03-14T04:37:10;2.58;;;0.93;;
75048;SDS011;63803;53.120;8.764;2023-03-14T04:39:36;4.32;;;1.35;;
75048;SDS011;63803;53.120;8.764;2023-03-14T04:42:01;1.75;;;1.00;;
75048;SDS011;63803;53.120;8.764;2023-03-14T04:44:30;2.70;;;0.90;;
75048;SDS011;63803;53.120;8.764;2023-03-14T04:46:55;5.68;;;1.10;;
75048;SDS011;63803;53.120;8.764;2023-03-14T04:49:21;2.42;;;1.00;;
75048;SDS011;63803;53.120;8.764;2023-03-14T04:51:46;2.08;;;1.13;;
75048;SDS011;63803;53.120;8.764;2023-03-14T04:54:12;4.18;;;1.20;;
75048;SDS011;63803;53.120;8.764;2023-03-14T04:56:37;3.28;;;1.02;;
75048;SDS011;63803;53.120;8.764;2023-03-14T04:59:03;4.43;;;1.13;;
75048;SDS011;63803;53.120;8.764;2023-03-14T05:01:29;4.15;;;1.02;;
75048;SDS011;63803;53.120;8.764;2023-03-14T05:03:55;2.22;;;0.88;;
75048;SDS011;63803;53.120;8.764;2023-03-14T05:06:20;1.85;;;1.00;;
75048;SDS011;63803;53.120;8.764;2023-03-14T05:08:46;3.92;;;1.08;;
75048;SDS011;63803;53.120;8.764;2023-03-14T05:11:11;3.33;;;0.95;;
75048;SDS011;63803;53.120;8.764;2023-03-14T05:13:38;3.40;;;1.40;;
75048;SDS011;63803;53.120;8.764;2023-03-14T05:16:07;1.85;;;0.80;;
75048;SDS011;63803;53.120;8.764;2023-03-14T05:18:34;1.95;;;1.00;;
75048;SDS011;63803;53.120;8.764;2023-03-14T05:21:00;1.60;;;0.93;;
75048;SDS011;63803;53.120;8.764;2023-03-14T05:23:25;2.30;;;1.00;;
75048;SDS011;63803;53.120;8.764;2023-03-14T05:25:51;5.22;;;1.67;;
75048;SDS011;63803;53.120;8.764;2023-03-14T05:28:16;1.10;;;0.80;;
75048;SDS011;63803;53.120;8.764;2023-03-14T05:30:42;2.80;;;1.20;;
75048;SDS011;63803;53.120;8.764;2023-03-14T05:33:07;3.35;;;0.95;;
75048;SDS011;63803;53.120;8.764;2023-03-14T05:35:33;1.63;;;1.02;;
75048;SDS011;63803;53.120;8.764;2023-03-14T05:37:58;4.53;;;1.10;;
75048;SDS011;63803;53.120;8.764;2023-03-14T05:40:24;2.35;;;0.90;;
75048;SDS011;63803;53.120;8.764;2023-03-14T05:42:49;1.27;;;0.88;;
75048;SDS011;63803;53.120;8.764;2023-03-14T05:45:15;3.75;;;0.88;;
75048;SDS011;63803;53.120;8.764;2023-03-14T05:47:40;1.30;;;0.85;;
75048;SDS011;63803;53.120;8.764;2023-03-14T05:50:06;1.58;;;0.90;;
75048;SDS011;63803;53.120;8.764;2023-03-14T05:52:32;2.03;;;1.00;;
75048;SDS011;63803;53.120;8.764;2023-03-14T05:54:57;2.45;;;1.10;;
75048;SDS011;63803;53.120;8.764;2023-03-14T05:57:23;1.27;;;1.00;;
75048;SDS011;63803;53.120;8.764;2023-03-14T05:59:48;1.63;;;0.80;;
75048;SDS011;63803;53.120;8.764;2023-03-14T06:02:14;2.38;;;0.82;;
75048;SDS011;63803;53.120;8.764;2023-03-14T06:04:39;1.80;;;0.82;;
75048;SDS011;63803;53.120;8.764;2023-03-14T06:07:04;2.95;;;1.42;;
75048;SDS011;63803;53.120;8.764;2023-03-14T06:09:30;2.00;;;0.77;;
75048;SDS011;63803;53.120;8.764;2023-03-14T06:11:55;3.35;;;1.00;;
75048;SDS011;63803;53.120;8.764;2023-03-14T06:14:21;4.13;;;1.15;;
75048;SDS011;63803;53.120;8.764;2023-03-14T06:16:46;0.82;;;0.70;;
75048;SDS011;63803;53.120;8.764;2023-03-14T06:19:14;1.63;;;0.70;;
75048;SDS011;63803;53.120;8.764;2023-03-14T06:21:39;3.58;;;0.80;;
75048;SDS011;63803;53.120;8.764;2023-03-14T06:24:05;2.90;;;0.90;;
75048;SDS011;63803;53.120;8.764;2023-03-14T06:26:31;4.65;;;1.35;;
75048;SDS011;63803;53.120;8.764;2023-03-14T06:28:57;3.05;;;0.90;;
75048;SDS011;63803;53.120;8.764;2023-03-14T06:31:24;4.35;;;1.15;;
75048;SDS011;63803;53.120;8.764;2023-03-14T06:33:49;4.35;;;0.98;;
75048;SDS011;63803;53.120;8.764;2023-03-14T06:36:15;2.45;;;0.80;;
75048;SDS011;63803;53.120;8.764;2023-03-14T06:38:40;2.70;;;0.90;;
75048;SDS011;63803;53.120;8.764;2023-03-14T06:41:06;2.20;;;0.98;;
75048;SDS011;63803;53.120;8.764;2023-03-14T06:43:33;2.38;;;1.55;;
75048;SDS011;63803;53.120;8.764;2023-03-14T06:45:58;1.38;;;0.68;;
75048;SDS011;63803;53.120;8.764;2023-03-14T06:48:24;3.75;;;1.00;;
75048;SDS011;63803;53.120;8.764;2023-03-14T06:50:49;1.98;;;0.80;;
75048;SDS011;63803;53.120;8.764;2023-03-14T06:53:15;5.88;;;1.00;;
75048;SDS011;63803;53.120;8.764;2023-03-14T06:55:40;1.45;;;0.90;;
75048;SDS011;63803;53.120;8.764;2023-03-14T06:58:06;3.75;;;1.10;;
75048;SDS011;63803;53.120;8.764;2023-03-14T07:00:33;2.15;;;1.17;;
75048;SDS011;63803;53.120;8.764;2023-03-14T07:02:59;2.05;;;0.73;;
75048;SDS011;63803;53.120;8.764;2023-03-14T07:05:25;3.20;;;0.70;;
75048;SDS011;63803;53.120;8.764;2023-03-14T07:07:50;2.13;;;0.98;;
75048;SDS011;63803;53.120;8.764;2023-03-14T07:10:16;2.15;;;0.98;;
75048;SDS011;63803;53.120;8.764;2023-03-14T07:12:41;2.05;;;0.90;;
75048;SDS011;63803;53.120;8.764;2023-03-14T07:15:07;3.58;;;0.88;;
75048;SDS011;63803;53.120;8.764;2023-03-14T07:17:39;2.03;;;0.70;;
75048;SDS011;63803;53.120;8.764;2023-03-14T07:20:05;1.40;;;0.80;;
75048;SDS011;63803;53.120;8.764;2023-03-14T07:22:32;1.45;;;0.90;;
75048;SDS011;63803;53.120;8.764;2023-03-14T07:24:57;3.30;;;0.60;;
75048;SDS011;63803;53.120;8.764;2023-03-14T07:27:23;2.17;;;1.10;;
75048;SDS011;63803;53.120;8.764;2023-03-14T07:29:49;3.35;;;1.20;;
75048;SDS011;63803;53.120;8.764;2023-03-14T07:32:14;1.95;;;0.77;;
75048;SDS011;63803;53.120;8.764;2023-03-14T07:34:43;1.27;;;0.60;;
75048;SDS011;63803;53.120;8.764;2023-03-14T07:37:09;1.70;;;0.88;;
75048;SDS011;63803;53.120;8.764;2023-03-14T07:39:35;3.70;;;0.65;;
75048;SDS011;63803;53.120;8.764;2023-03-14T07:42:00;2.72;;;0.77;;
75048;SDS011;63803;53.120;8.764;2023-03-14T07:44:26;1.63;;;0.90;;
75048;SDS011;63803;53.120;8.764;2023-03-14T07:46:52;1.27;;;0.70;;
75048;SDS011;63803;53.120;8.764;2023-03-14T07:49:17;1.27;;;0.80;;
75048;SDS011;63803;53.120;8.764;2023-03-14T07:51:43;2.80;;;0.90;;
75048;SDS011;63803;53.120;8.764;2023-03-14T07:54:11;1.65;;;0.70;;
75048;SDS011;63803;53.120;8.764;2023-03-14T07:56:36;2.10;;;0.82;;
75048;SDS011;63803;53.120;8.764;2023-03-14T07:59:02;2.58;;;0.70;;
75048;SDS011;63803;53.120;8.764;2023-03-14T08:01:28;0.50;;;0.50;;
75048;SDS011;63803;53.120;8.764;2023-03-14T08:03:54;1.63;;;0.85;;
75048;SDS011;63803;53.120;8.764;2023-03-14T08:06:19;1.95;;;0.90;;
75048;SDS011;63803;53.120;8.764;2023-03-14T08:08:45;1.42;;;0.85;;
75048;SDS011;63803;53.120;8.764;2023-03-14T08:11:11;1.27;;;0.90;;
75048;SDS011;63803;53.120;8.764;2023-03-14T08:13:36;1.45;;;0.70;;
75048;SDS011;63803;53.120;8.764;2023-03-14T08:16:03;3.30;;;0.90;;
75048;SDS011;63803;53.120;8.764;2023-03-14T08:18:29;1.73;;;1.05;;
75048;SDS011;63803;53.120;8.764;2023-03-14T08:20:54;1.45;;;0.68;;
75048;SDS011;63803;53.120;8.764;2023-03-14T08:23:20;3.40;;;0.95;;
75048;SDS011;63803;53.120;8.764;2023-03-14T08:25:45;1.95;;;0.60;;
75048;SDS011;63803;53.120;8.764;2023-03-14T08:28:14;2.50;;;0.93;;
75048;SDS011;63803;53.120;8.764;2023-03-14T08:30:40;1.70;;;0.80;;
75048;SDS011;63803;53.120;8.764;2023-03-14T08:33:05;2.28;;;0.85;;
75048;SDS011;63803;53.120;8.764;2023-03-14T08:35:31;1.27;;;0.70;;
75048;SDS011;63803;53.120;8.764;2023-03-14T08:37:56;1.70;;;0.77;;
75048;SDS011;63803;53.120;8.764;2023-03-14T08:40:22;2.00;;;0.93;;
75048;SDS011;63803;53.120;8.764;2023-03-14T08:42:47;4.90;;;1.00;;
75048;SDS011;63803;53.120;8.764;2023-03-14T08:45:13;1.38;;;0.80;;
75048;SDS011;63803;53.120;8.764;2023-03-14T08:47:41;1.75;;;0.77;;
75048;SDS011;63803;53.120;8.764;2023-03-14T08:50:08;1.92;;;0.88;;
75048;SDS011;63803;53.120;8.764;2023-03-14T08:52:34;1.60;;;0.63;;
75048;SDS011;63803;53.120;8.764;2023-03-14T08:55:00;1.00;;;0.60;;
75048;SDS011;63803;53.120;8.764;2023-03-14T08:57:25;1.80;;;0.80;;
75048;SDS011;63803;53.120;8.764;2023-03-14T08:59:55;2.35;;;0.85;;
75048;SDS011;63803;53.120;8.764;2023-03-14T09:02:21;3.05;;;0.60;;
75048;SDS011;63803;53.120;8.764;2023-03-14T09:04:47;1.15;;;0.65;;
75048;SDS011;63803;53.120;8.764;2023-03-14T09:07:14;1.67;;;0.70;;
75048;SDS011;63803;53.120;8.764;2023-03-14T09:09:40;1.00;;;0.70;;
75048;SDS011;63803;53.120;8.764;2023-03-14T09:12:05;3.42;;;0.73;;
75048;SDS011;63803;53.120;8.764;2023-03-14T09:14:31;1.33;;;0.70;;
75048;SDS011;63803;53.120;8.764;2023-03-14T09:16:57;4.00;;;0.80;;
75048;SDS011;63803;53.120;8.764;2023-03-14T09:19:22;1.40;;;0.70;;
75048;SDS011;63803;53.120;8.764;2023-03-14T09:21:48;2.10;;;0.90;;
75048;SDS011;63803;53.120;8.764;2023-03-14T09:24:14;1.02;;;0.65;;
75048;SDS011;63803;53.120;8.764;2023-03-14T09:26:39;1.92;;;0.60;;
75048;SDS011;63803;53.120;8.764;2023-03-14T09:29:05;1.75;;;0.90;;
75048;SDS011;63803;53.120;8.764;2023-03-14T09:31:30;0.93;;;0.60;;
75048;SDS011;63803;53.120;8.764;2023-03-14T09:33:56;2.05;;;0.80;;
75048;SDS011;63803;53.120;8.764;2023-03-14T09:36:22;1.80;;;0.85;;
75048;SDS011;63803;53.120;8.764;2023-03-14T09:38:47;1.48;;;0.73;;
75048;SDS011;63803;53.120;8.764;2023-03-14T09:44:42;1.30;;;0.70;;
75048;SDS011;63803;53.120;8.764;2023-03-14T09:46:53;1.92;;;0.70;;
75048;SDS011;63803;53.120;8.764;2023-03-14T09:49:29;1.20;;;0.60;;
75048;SDS011;63803;53.120;8.764;2023-03-14T09:51:57;2.83;;;0.75;;
75048;SDS011;63803;53.120;8.764;2023-03-14T09:54:30;3.17;;;0.80;;
75048;SDS011;63803;53.120;8.764;2023-03-14T09:56:59;1.73;;;0.93;;
75048;SDS011;63803;53.120;8.764;2023-03-14T09:59:25;1.95;;;0.80;;
75048;SDS011;63803;53.120;8.764;2023-03-14T10:01:55;2.25;;;0.65;;
75048;SDS011;63803;53.120;8.764;2023-03-14T10:04:23;1.60;;;0.80;;
75048;SDS011;63803;53.120;8.764;2023-03-14T10:06:49;2.58;;;0.80;;
75048;SDS011;63803;53.120;8.764;2023-03-14T10:09:17;1.77;;;0.45;;
75048;SDS011;63803;53.120;8.764;2023-03-14T10:11:54;1.20;;;0.77;;
75048;SDS011;63803;53.120;8.764;2023-03-14T10:14:31;3.05;;;0.80;;
75048;SDS011;63803;53.120;8.764;2023-03-14T10:17:09;2.75;;;0.55;;
75048;SDS011;63803;53.120;8.764;2023-03-14T10:19:37;3.03;;;0.43;;
75048;SDS011;63803;53.120;8.764;2023-03-14T10:22:16;2.15;;;0.60;;
75048;SDS011;63803;53.120;8.764;2023-03-14T10:24:45;2.78;;;0.52;;
75048;SDS011;63803;53.120;8.764;2023-03-14T10:27:20;1.27;;;0.60;;
75048;SDS011;63803;53.120;8.764;2023-03-14T10:29:57;1.67;;;0.55;;
75048;SDS011;63803;53.120;8.764;2023-03-14T10:32:35;2.03;;;0.65;;
75048;SDS011;63803;53.120;8.764;2023-03-14T10:35:07;1.17;;;0.70;;
75048;SDS011;63803;53.120;8.764;2023-03-14T10:37:33;6.78;;;0.65;;
75048;SDS011;63803;53.120;8.764;2023-03-14T10:40:00;2.60;;;0.60;;
75048;SDS011;63803;53.120;8.764;2023-03-14T10:45:03;3.85;;;0.85;;
75048;SDS011;63803;53.120;8.764;2023-03-14T10:47:33;1.63;;;0.80;;
75048;SDS011;63803;53.120;8.764;2023-03-14T10:50:22;0.98;;;0.43;;
75048;SDS011;63803;53.120;8.764;2023-03-14T10:52:50;1.45;;;0.65;;
75048;SDS011;63803;53.120;8.764;2023-03-14T10:55:18;3.63;;;0.77;;
75048;SDS011;63803;53.120;8.764;2023-03-14T10:57:46;1.85;;;0.45;;
75048;SDS011;63803;53.120;8.764;2023-03-14T11:00:14;1.85;;;0.70;;
75048;SDS011;63803;53.120;8.764;2023-03-14T11:08:07;1.25;;;0.60;;
75048;SDS011;63803;53.120;8.764;2023-03-14T11:10:39;1.70;;;0.40;;
75048;SDS011;63803;53.120;8.764;2023-03-14T11:23:23;2.60;;;0.70;;
75048;SDS011;63803;53.120;8.764;2023-03-14T11:26:28;0.85;;;0.52;;
75048;SDS011;63803;53.120;8.764;2023-03-14T11:29:45;1.50;;;0.57;;
75048;SDS011;63803;53.120;8.764;2023-03-14T11:32:17;1.05;;;0.55;;
75048;SDS011;63803;53.120;8.764;2023-03-14T11:35:02;2.10;;;0.60;;
75048;SDS011;63803;53.120;8.764;2023-03-14T11:37:36;2.75;;;0.50;;
75048;SDS011;63803;53.120;8.764;2023-03-14T11:42:43;2.67;;;0.60;;
75048;SDS011;63803;53.120;8.764;2023-03-14T11:50:40;0.88;;;0.32;;
75048;SDS011;63803;53.120;8.764;2023-03-14T11:53:13;1.42;;;0.60;;
75048;SDS011;63803;53.120;8.764;2023-03-14T11:55:51;4.03;;;0.90;;
75048;SDS011;63803;53.120;8.764;2023-03-14T11:58:29;2.05;;;0.68;;
75048;SDS011;63803;53.120;8.764;2023-03-14T12:01:01;1.17;;;0.52;;
75048;SDS011;63803;53.120;8.764;2023-03-14T12:03:44;2.97;;;0.65;;
75048;SDS011;63803;53.120;8.764;2023-03-14T12:13:57;3.30;;;0.60;;
75048;SDS011;63803;53.120;8.764;2023-03-14T12:18:48;0.95;;;0.50;;
75048;SDS011;63803;53.120;8.764;2023-03-14T12:21:14;4.03;;;0.57;;
75048;SDS011;63803;53.120;8.764;2023-03-14T12:23:44;2.70;;;0.60;;
75048;SDS011;63803;53.120;8.764;2023-03-14T12:26:20;2.47;;;0.73;;
75048;SDS011;63803;53.120;8.764;2023-03-14T12:28:51;4.22;;;0.60;;
75048;SDS011;63803;53.120;8.764;2023-03-14T12:31:40;1.60;;;0.60;;
75048;SDS011;63803;53.120;8.764;2023-03-14T12:39:19;2.88;;;0.55;;
75048;SDS011;63803;53.120;8.764;2023-03-14T12:49:44;1.23;;;0.40;;
75048;SDS011;63803;53.120;8.764;2023-03-14T12:55:10;2.47;;;0.60;;
75048;SDS011;63803;53.120;8.764;2023-03-14T12:57:50;1.67;;;0.73;;
75048;SDS011;63803;53.120;8.764;2023-03-14T13:00:32;2.05;;;0.57;;
75048;SDS011;63803;53.120;8.764;2023-03-14T13:03:00;2.85;;;0.80;;
75048;SDS011;63803;53.120;8.764;2023-03-14T13:05:40;4.90;;;0.93;;
75048;SDS011;63803;53.120;8.764;2023-03-14T13:08:32;9.93;;;1.00;;
75048;SDS011;63803;53.120;8.764;2023-03-14T13:11:05;3.70;;;0.93;;
75048;SDS011;63803;53.120;8.764;2023-03-14T13:13:34;1.45;;;0.80;;
75048;SDS011;63803;53.120;8.764;2023-03-14T13:16:02;1.63;;;0.80;;
75048;SDS011;63803;53.120;8.764;2023-03-14T13:18:35;2.45;;;1.08;;
75048;SDS011;63803;53.120;8.764;2023-03-14T13:21:07;4.47;;;0.85;;
75048;SDS011;63803;53.120;8.764;2023-03-14T13:23:37;3.30;;;0.73;;
75048;SDS011;63803;53.120;8.764;2023-03-14T13:26:03;2.05;;;0.75;;
75048;SDS011;63803;53.120;8.764;2023-03-14T13:28:36;2.25;;;0.50;;
75048;SDS011;63803;53.120;8.764;2023-03-14T13:31:02;3.80;;;0.98;;
75048;SDS011;63803;53.120;8.764;2023-03-14T13:33:30;3.13;;;0.60;;
75048;SDS011;63803;53.120;8.764;2023-03-14T13:35:59;2.63;;;0.80;;
75048;SDS011;63803;53.120;8.764;2023-03-14T13:38:31;6.15;;;0.75;;
75048;SDS011;63803;53.120;8.764;2023-03-14T13:40:59;4.38;;;0.80;;
75048;SDS011;63803;53.120;8.764;2023-03-14T13:43:33;4.22;;;0.90;;
75048;SDS011;63803;53.120;8.764;2023-03-14T13:46:03;2.70;;;0.55;;
75048;SDS011;63803;53.120;8.764;2023-03-14T13:48:30;2.88;;;0.75;;
75048;SDS011;63803;53.120;8.764;2023-03-14T13:51:00;3.47;;;0.70;;
75048;SDS011;63803;53.120;8.764;2023-03-14T13:53:28;3.00;;;0.60;;
75048;SDS011;63803;53.120;8.764;2023-03-14T13:55:54;1.27;;;0.57;;
75048;SDS011;63803;53.120;8.764;2023-03-14T13:58:24;2.45;;;0.90;;
75048;SDS011;63803;53.120;8.764;2023-03-14T14:00:55;4.38;;;0.73;;
75048;SDS011;63803;53.120;8.764;2023-03-14T14:03:23;1.90;;;0.60;;
75048;SDS011;63803;53.120;8.764;2023-03-14T14:05:49;2.08;;;0.60;;
75048;SDS011;63803;53.120;8.764;2023-03-14T14:08:15;3.25;;;0.82;;
75048;SDS011;63803;53.120;8.764;2023-03-14T14:10:40;5.15;;;0.88;;
75048;SDS011;63803;53.120;8.764;2023-03-14T14:13:08;1.42;;;0.50;;
75048;SDS011;63803;53.120;8.764;2023-03-14T14:15:41;1.45;;;0.73;;
75048;SDS011;63803;53.120;8.764;2023-03-14T14:18:10;2.90;;;0.60;;
75048;SDS011;63803;53.120;8.764;2023-03-14T14:20:40;2.67;;;1.13;;
75048;SDS011;63803;53.120;8.764;2023-03-14T14:23:26;5.40;;;0.80;;
75048;SDS011;63803;53.120;8.764;2023-03-14T14:25:54;3.63;;;0.82;;
75048;SDS011;63803;53.120;8.764;2023-03-14T14:28:30;1.60;;;0.80;;
75048;SDS011;63803;53.120;8.764;2023-03-14T14:36:22;7.40;;;0.95;;
75048;SDS011;63803;53.120;8.764;2023-03-14T14:38:51;2.42;;;0.70;;
75048;SDS011;63803;53.120;8.764;2023-03-14T14:41:19;2.13;;;0.75;;
75048;SDS011;63803;53.120;8.764;2023-03-14T14:43:45;1.92;;;0.73;;
75048;SDS011;63803;53.120;8.764;2023-03-14T14:46:13;3.42;;;0.85;;
75048;SDS011;63803;53.120;8.764;2023-03-14T14:48:42;3.38;;;0.75;;
75048;SDS011;63803;53.120;8.764;2023-03-14T14:51:08;6.18;;;0.90;;
75048;SDS011;63803;53.120;8.764;2023-03-14T14:53:38;2.17;;;0.60;;
75048;SDS011;63803;53.120;8.764;2023-03-14T14:56:25;4.75;;;0.93;;
75048;SDS011;63803;53.120;8.764;2023-03-14T14:58:56;3.40;;;0.75;;
75048;SDS011;63803;53.120;8.764;2023-03-14T15:01:24;1.35;;;0.50;;
75048;SDS011;63803;53.120;8.764;2023-03-14T15:03:52;1.08;;;0.52;;
75048;SDS011;63803;53.120;8.764;2023-03-14T15:06:19;4.18;;;1.10;;
75048;SDS011;63803;53.120;8.764;2023-03-14T15:08:46;5.20;;;0.75;;
75048;SDS011;63803;53.120;8.764;2023-03-14T15:11:17;4.97;;;1.15;;
75048;SDS011;63803;53.120;8.764;2023-03-14T15:13:51;2.17;;;0.88;;
75048;SDS011;63803;53.120;8.764;2023-03-14T15:16:21;1.95;;;0.45;;
75048;SDS011;63803;53.120;8.764;2023-03-14T15:18:54;2.35;;;0.70;;
75048;SDS011;63803;53.120;8.764;2023-03-14T15:21:21;4.03;;;0.93;;
75048;SDS011;63803;53.120;8.764;2023-03-14T15:23:47;2.50;;;0.85;;
75048;SDS011;63803;53.120;8.764;2023-03-14T15:26:14;3.80;;;0.80;;
75048;SDS011;63803;53.120;8.764;2023-03-14T15:28:41;2.00;;;0.80;;
75048;SDS011;63803;53.120;8.764;2023-03-14T15:31:10;2.53;;;0.80;;
75048;SDS011;63803;53.120;8.764;2023-03-14T15:33:36;2.83;;;0.60;;
75048;SDS011;63803;53.120;8.764;2023-03-14T15:36:03;6.70;;;0.70;;
75048;SDS011;63803;53.120;8.764;2023-03-14T15:38:29;1.77;;;0.70;;
75048;SDS011;63803;53.120;8.764;2023-03-14T15:40:55;5.00;;;0.98;;
75048;SDS011;63803;53.120;8.764;2023-03-14T15:43:20;2.85;;;0.70;;
75048;SDS011;63803;53.120;8.764;2023-03-14T15:45:46;2.67;;;0.70;;
75048;SDS011;63803;53.120;8.764;2023-03-14T15:48:15;3.40;;;0.90;;
75048;SDS011;63803;53.120;8.764;2023-03-14T15:50:43;2.53;;;0.90;;
75048;SDS011;63803;53.120;8.764;2023-03-14T15:53:08;1.92;;;0.85;;
75048;SDS011;63803;53.120;8.764;2023-03-14T15:55:34;3.78;;;0.70;;
75048;SDS011;63803;53.120;8.764;2023-03-14T15:58:00;2.72;;;0.70;;
75048;SDS011;63803;53.120;8.764;2023-03-14T16:00:27;2.08;;;0.70;;
75048;SDS011;63803;53.120;8.764;2023-03-14T16:02:54;1.65;;;0.68;;
75048;SDS011;63803;53.120;8.764;2023-03-14T16:05:19;3.75;;;0.80;;